sensor_id;sensor_type;location;lat;lon;timestamp;P1;durP1;ratioP1;P2;durP2;ratioP2
37051;SDS011;22964;52.272;13.356;2022-08-11T00:00:07;3.67;;;1.38;;
37051;SDS011;22964;52.272;13.356;2022-08-11T00:02:47;4.40;;;1.60;;
37051;SDS011;22964;52.272;13.356;2022-08-11T00:05:17;2.65;;;1.80;;
37051;SDS011;22964;52.272;13.356;2022-08-11T00:07:49;3.28;;;1.60;;
37051;SDS011;22964;52.272;13.356;2022-08-11T00:10:18;5.28;;;1.55;;
37051;SDS011;22964;52.272;13.356;2022-08-11T00:12:54;2.75;;;1.70;;
37051;SDS011;22964;52.272;13.356;2022-08-11T00:15:22;2.35;;;1.40;;
37051;SDS011;22964;52.272;13.356;2022-08-11T00:17:49;2.92;;;1.70;;
37051;SDS011;22964;52.272;13.356;2022-08-11T00:20:21;5.68;;;1.50;;
37051;SDS011;22964;52.272;13.356;2022-08-11T00:22:52;2.47;;;1.60;;
37051;SDS011;22964;52.272;13.356;2022-08-11T00:25:40;4.47;;;1.60;;
37051;SDS011;22964;52.272;13.356;2022-08-11T00:28:22;4.88;;;1.67;;
37051;SDS011;22964;52.272;13.356;2022-08-11T00:30:50;3.95;;;1.60;;
37051;SDS011;22964;52.272;13.356;2022-08-11T00:33:17;2.60;;;1.55;;
37051;SDS011;22964;52.272;13.356;2022-08-11T00:35:44;5.85;;;1.60;;
37051;SDS011;22964;52.272;13.356;2022-08-11T00:38:11;2.75;;;1.55;;
37051;SDS011;22964;52.272;13.356;2022-08-11T00:40:41;4.85;;;1.48;;
37051;SDS011;22964;52.272;13.356;2022-08-11T00:43:20;5.38;;;1.48;;
37051;SDS011;22964;52.272;13.356;2022-08-11T00:51:35;4.07;;;1.77;;
37051;SDS011;22964;52.272;13.356;2022-08-11T00:57:32;4.50;;;1.42;;
37051;SDS011;22964;52.272;13.356;2022-08-11T01:00:20;4.65;;;1.58;;
37051;SDS011;22964;52.272;13.356;2022-08-11T01:14:00;2.55;;;1.50;;
37051;SDS011;22964;52.272;13.356;2022-08-11T01:19:23;2.38;;;1.67;;
37051;SDS011;22964;52.272;13.356;2022-08-11T01:31:04;4.95;;;1.50;;
37051;SDS011;22964;52.272;13.356;2022-08-11T01:34:05;2.78;;;1.63;;
37051;SDS011;22964;52.272;13.356;2022-08-11T01:39:37;4.60;;;1.95;;
37051;SDS011;22964;52.272;13.356;2022-08-11T01:45:58;3.87;;;1.47;;
37051;SDS011;22964;52.272;13.356;2022-08-11T01:59:48;3.75;;;1.60;;
37051;SDS011;22964;52.272;13.356;2022-08-11T02:11:25;3.25;;;1.80;;
37051;SDS011;22964;52.272;13.356;2022-08-11T02:17:03;3.33;;;1.70;;
37051;SDS011;22964;52.272;13.356;2022-08-11T02:19:51;3.17;;;1.63;;
37051;SDS011;22964;52.272;13.356;2022-08-11T02:25:42;4.78;;;1.48;;
37051;SDS011;22964;52.272;13.356;2022-08-11T02:42:26;3.22;;;1.67;;
37051;SDS011;22964;52.272;13.356;2022-08-11T02:45:17;4.85;;;1.83;;
37051;SDS011;22964;52.272;13.356;2022-08-11T02:54:06;4.65;;;1.92;;
37051;SDS011;22964;52.272;13.356;2022-08-11T02:56:53;3.88;;;1.55;;
37051;SDS011;22964;52.272;13.356;2022-08-11T02:59:27;2.47;;;1.48;;
37051;SDS011;22964;52.272;13.356;2022-08-11T03:07:28;4.47;;;1.70;;
37051;SDS011;22964;52.272;13.356;2022-08-11T03:13:09;3.47;;;1.90;;
37051;SDS011;22964;52.272;13.356;2022-08-11T03:18:49;3.72;;;1.70;;
37051;SDS011;22964;52.272;13.356;2022-08-11T03:21:25;2.88;;;1.70;;
37051;SDS011;22964;52.272;13.356;2022-08-11T03:24:04;3.00;;;1.80;;
37051;SDS011;22964;52.272;13.356;2022-08-11T03:35:00;4.55;;;2.10;;
37051;SDS011;22964;52.272;13.356;2022-08-11T03:37:45;5.00;;;1.90;;
37051;SDS011;22964;52.272;13.356;2022-08-11T03:43:23;3.67;;;1.80;;
37051;SDS011;22964;52.272;13.356;2022-08-11T03:46:11;3.90;;;1.75;;
37051;SDS011;22964;52.272;13.356;2022-08-11T03:51:21;4.15;;;2.10;;
37051;SDS011;22964;52.272;13.356;2022-08-11T04:08:21;4.65;;;1.98;;
37051;SDS011;22964;52.272;13.356;2022-08-11T04:31:37;3.85;;;1.85;;
37051;SDS011;22964;52.272;13.356;2022-08-11T04:34:32;3.28;;;2.00;;
37051;SDS011;22964;52.272;13.356;2022-08-11T04:37:10;8.55;;;2.10;;
37051;SDS011;22964;52.272;13.356;2022-08-11T04:45:39;2.55;;;1.88;;
37051;SDS011;22964;52.272;13.356;2022-08-11T04:48:38;10.45;;;2.10;;
37051;SDS011;22964;52.272;13.356;2022-08-11T05:00:54;3.63;;;2.15;;
37051;SDS011;22964;52.272;13.356;2022-08-11T05:03:52;3.03;;;2.10;;
37051;SDS011;22964;52.272;13.356;2022-08-11T05:09:18;3.53;;;2.10;;
37051;SDS011;22964;52.272;13.356;2022-08-11T05:11:52;2.97;;;2.13;;
37051;SDS011;22964;52.272;13.356;2022-08-11T05:14:34;4.75;;;2.08;;
37051;SDS011;22964;52.272;13.356;2022-08-11T05:17:23;4.28;;;2.08;;
37051;SDS011;22964;52.272;13.356;2022-08-11T05:20:30;3.55;;;2.33;;
37051;SDS011;22964;52.272;13.356;2022-08-11T05:23:26;3.38;;;2.38;;
37051;SDS011;22964;52.272;13.356;2022-08-11T05:26:11;5.82;;;2.40;;
37051;SDS011;22964;52.272;13.356;2022-08-11T05:29:00;4.50;;;2.22;;
37051;SDS011;22964;52.272;13.356;2022-08-11T05:31:54;4.78;;;2.25;;
37051;SDS011;22964;52.272;13.356;2022-08-11T05:34:42;2.65;;;2.17;;
37051;SDS011;22964;52.272;13.356;2022-08-11T05:39:55;5.05;;;2.40;;
37051;SDS011;22964;52.272;13.356;2022-08-11T05:43:06;6.15;;;2.33;;
37051;SDS011;22964;52.272;13.356;2022-08-11T05:45:57;3.45;;;2.60;;
37051;SDS011;22964;52.272;13.356;2022-08-11T05:48:47;4.43;;;2.40;;
37051;SDS011;22964;52.272;13.356;2022-08-11T05:51:33;7.82;;;2.65;;
37051;SDS011;22964;52.272;13.356;2022-08-11T05:54:19;4.65;;;2.65;;
37051;SDS011;22964;52.272;13.356;2022-08-11T05:57:04;5.13;;;2.53;;
37051;SDS011;22964;52.272;13.356;2022-08-11T05:59:31;3.78;;;2.60;;
37051;SDS011;22964;52.272;13.356;2022-08-11T06:02:04;4.68;;;2.40;;
37051;SDS011;22964;52.272;13.356;2022-08-11T06:04:31;5.80;;;2.50;;
37051;SDS011;22964;52.272;13.356;2022-08-11T06:07:00;5.10;;;2.50;;
37051;SDS011;22964;52.272;13.356;2022-08-11T06:12:02;6.72;;;2.50;;
37051;SDS011;22964;52.272;13.356;2022-08-11T06:14:33;6.25;;;2.50;;
37051;SDS011;22964;52.272;13.356;2022-08-11T06:17:05;3.38;;;2.33;;
37051;SDS011;22964;52.272;13.356;2022-08-11T06:19:38;3.92;;;2.50;;
37051;SDS011;22964;52.272;13.356;2022-08-11T06:22:09;6.03;;;2.75;;
37051;SDS011;22964;52.272;13.356;2022-08-11T06:24:37;4.20;;;2.33;;
37051;SDS011;22964;52.272;13.356;2022-08-11T06:27:18;5.60;;;2.78;;
37051;SDS011;22964;52.272;13.356;2022-08-11T06:29:49;3.83;;;2.28;;
37051;SDS011;22964;52.272;13.356;2022-08-11T06:32:16;6.05;;;2.38;;
37051;SDS011;22964;52.272;13.356;2022-08-11T06:34:51;3.80;;;2.60;;
37051;SDS011;22964;52.272;13.356;2022-08-11T06:37:44;3.53;;;2.53;;
37051;SDS011;22964;52.272;13.356;2022-08-11T06:40:24;6.70;;;2.40;;
37051;SDS011;22964;52.272;13.356;2022-08-11T06:48:14;6.28;;;2.60;;
37051;SDS011;22964;52.272;13.356;2022-08-11T06:50:46;6.70;;;2.55;;
37051;SDS011;22964;52.272;13.356;2022-08-11T06:53:49;4.47;;;2.30;;
37051;SDS011;22964;52.272;13.356;2022-08-11T06:56:24;6.95;;;2.33;;
37051;SDS011;22964;52.272;13.356;2022-08-11T06:59:14;5.78;;;2.40;;
37051;SDS011;22964;52.272;13.356;2022-08-11T07:02:14;6.05;;;2.53;;
37051;SDS011;22964;52.272;13.356;2022-08-11T07:04:55;5.22;;;2.20;;
37051;SDS011;22964;52.272;13.356;2022-08-11T07:13:22;4.00;;;2.25;;
37051;SDS011;22964;52.272;13.356;2022-08-11T07:16:07;6.10;;;2.50;;
37051;SDS011;22964;52.272;13.356;2022-08-11T07:18:35;3.85;;;2.40;;
37051;SDS011;22964;52.272;13.356;2022-08-11T07:21:21;4.05;;;2.10;;
37051;SDS011;22964;52.272;13.356;2022-08-11T07:24:15;3.70;;;2.28;;
37051;SDS011;22964;52.272;13.356;2022-08-11T07:27:03;4.05;;;2.00;;
37051;SDS011;22964;52.272;13.356;2022-08-11T07:29:51;4.25;;;2.05;;
37051;SDS011;22964;52.272;13.356;2022-08-11T07:32:29;5.57;;;2.40;;
37051;SDS011;22964;52.272;13.356;2022-08-11T07:35:44;5.22;;;2.10;;
37051;SDS011;22964;52.272;13.356;2022-08-11T07:37:52;2.95;;;2.10;;
37051;SDS011;22964;52.272;13.356;2022-08-11T07:40:23;3.53;;;2.10;;
37051;SDS011;22964;52.272;13.356;2022-08-11T07:42:50;4.40;;;2.20;;
37051;SDS011;22964;52.272;13.356;2022-08-11T07:45:17;4.38;;;2.00;;
37051;SDS011;22964;52.272;13.356;2022-08-11T07:48:02;4.13;;;2.30;;
37051;SDS011;22964;52.272;13.356;2022-08-11T07:50:47;2.83;;;2.10;;
37051;SDS011;22964;52.272;13.356;2022-08-11T07:53:32;2.80;;;1.95;;
37051;SDS011;22964;52.272;13.356;2022-08-11T07:56:02;2.70;;;1.90;;
37051;SDS011;22964;52.272;13.356;2022-08-11T07:58:33;9.75;;;2.28;;
37051;SDS011;22964;52.272;13.356;2022-08-11T08:01:20;2.80;;;1.88;;
37051;SDS011;22964;52.272;13.356;2022-08-11T08:04:06;3.42;;;2.00;;
37051;SDS011;22964;52.272;13.356;2022-08-11T08:06:53;20.63;;;2.30;;
37051;SDS011;22964;52.272;13.356;2022-08-11T08:09:39;2.92;;;2.05;;
37051;SDS011;22964;52.272;13.356;2022-08-11T08:12:25;3.35;;;1.90;;
37051;SDS011;22964;52.272;13.356;2022-08-11T08:15:11;3.45;;;1.83;;
37051;SDS011;22964;52.272;13.356;2022-08-11T08:17:58;4.78;;;1.92;;
37051;SDS011;22964;52.272;13.356;2022-08-11T08:20:27;2.83;;;1.75;;
37051;SDS011;22964;52.272;13.356;2022-08-11T08:22:57;3.17;;;2.10;;
37051;SDS011;22964;52.272;13.356;2022-08-11T08:25:25;3.33;;;1.70;;
37051;SDS011;22964;52.272;13.356;2022-08-11T08:27:56;3.83;;;1.85;;
37051;SDS011;22964;52.272;13.356;2022-08-11T08:30:23;2.88;;;1.80;;
37051;SDS011;22964;52.272;13.356;2022-08-11T08:33:10;2.47;;;1.90;;
37051;SDS011;22964;52.272;13.356;2022-08-11T08:35:57;3.53;;;1.70;;
37051;SDS011;22964;52.272;13.356;2022-08-11T08:38:39;2.85;;;1.80;;
37051;SDS011;22964;52.272;13.356;2022-08-11T08:41:06;3.47;;;2.00;;
37051;SDS011;22964;52.272;13.356;2022-08-11T08:43:34;5.85;;;2.00;;
37051;SDS011;22964;52.272;13.356;2022-08-11T08:46:01;3.40;;;1.90;;
37051;SDS011;22964;52.272;13.356;2022-08-11T08:48:33;5.15;;;1.98;;
37051;SDS011;22964;52.272;13.356;2022-08-11T08:51:01;2.00;;;1.60;;
37051;SDS011;22964;52.272;13.356;2022-08-11T08:53:51;3.42;;;1.73;;
37051;SDS011;22964;52.272;13.356;2022-08-11T08:56:19;2.65;;;1.85;;
37051;SDS011;22964;52.272;13.356;2022-08-11T08:58:52;2.60;;;1.60;;
37051;SDS011;22964;52.272;13.356;2022-08-11T09:01:18;3.28;;;1.60;;
37051;SDS011;22964;52.272;13.356;2022-08-11T09:03:46;2.75;;;1.90;;
37051;SDS011;22964;52.272;13.356;2022-08-11T09:06:12;2.40;;;1.80;;
37051;SDS011;22964;52.272;13.356;2022-08-11T09:08:41;3.28;;;1.80;;
37051;SDS011;22964;52.272;13.356;2022-08-11T09:11:08;4.88;;;1.70;;
37051;SDS011;22964;52.272;13.356;2022-08-11T09:13:54;3.13;;;1.90;;
37051;SDS011;22964;52.272;13.356;2022-08-11T09:16:20;2.67;;;1.88;;
37051;SDS011;22964;52.272;13.356;2022-08-11T09:18:48;3.22;;;1.83;;
37051;SDS011;22964;52.272;13.356;2022-08-11T09:21:15;3.10;;;1.58;;
37051;SDS011;22964;52.272;13.356;2022-08-11T09:23:44;5.45;;;2.20;;
37051;SDS011;22964;52.272;13.356;2022-08-11T09:26:30;5.47;;;1.67;;
37051;SDS011;22964;52.272;13.356;2022-08-11T09:29:14;6.05;;;2.10;;
37051;SDS011;22964;52.272;13.356;2022-08-11T09:31:40;6.22;;;1.77;;
37051;SDS011;22964;52.272;13.356;2022-08-11T09:34:08;9.98;;;2.20;;
37051;SDS011;22964;52.272;13.356;2022-08-11T09:36:36;3.85;;;1.70;;
37051;SDS011;22964;52.272;13.356;2022-08-11T09:39:24;3.65;;;1.80;;
37051;SDS011;22964;52.272;13.356;2022-08-11T09:42:10;2.38;;;1.50;;
37051;SDS011;22964;52.272;13.356;2022-08-11T09:44:37;2.95;;;1.80;;
37051;SDS011;22964;52.272;13.356;2022-08-11T09:47:16;2.78;;;1.55;;
37051;SDS011;22964;52.272;13.356;2022-08-11T09:49:57;2.10;;;1.55;;
37051;SDS011;22964;52.272;13.356;2022-08-11T09:52:24;5.53;;;1.80;;
37051;SDS011;22964;52.272;13.356;2022-08-11T09:54:51;3.78;;;1.85;;
37051;SDS011;22964;52.272;13.356;2022-08-11T09:57:19;2.22;;;1.45;;
37051;SDS011;22964;52.272;13.356;2022-08-11T10:00:05;4.07;;;1.63;;
37051;SDS011;22964;52.272;13.356;2022-08-11T10:02:33;8.50;;;1.83;;
37051;SDS011;22964;52.272;13.356;2022-08-11T10:05:07;5.82;;;2.00;;
37051;SDS011;22964;52.272;13.356;2022-08-11T10:07:52;3.10;;;1.60;;
37051;SDS011;22964;52.272;13.356;2022-08-11T10:10:19;2.50;;;1.55;;
37051;SDS011;22964;52.272;13.356;2022-08-11T10:12:57;6.03;;;1.48;;
37051;SDS011;22964;52.272;13.356;2022-08-11T10:21:09;4.72;;;1.40;;
37051;SDS011;22964;52.272;13.356;2022-08-11T10:23:38;2.47;;;1.33;;
37051;SDS011;22964;52.272;13.356;2022-08-11T10:26:23;2.92;;;1.55;;
37051;SDS011;22964;52.272;13.356;2022-08-11T10:29:10;3.05;;;1.40;;
37051;SDS011;22964;52.272;13.356;2022-08-11T10:31:56;3.47;;;1.70;;
37051;SDS011;22964;52.272;13.356;2022-08-11T10:34:42;6.13;;;1.50;;
37051;SDS011;22964;52.272;13.356;2022-08-11T10:37:10;3.33;;;1.80;;
37051;SDS011;22964;52.272;13.356;2022-08-11T10:39:36;2.20;;;1.60;;
37051;SDS011;22964;52.272;13.356;2022-08-11T10:42:03;3.47;;;1.80;;
37051;SDS011;22964;52.272;13.356;2022-08-11T10:44:52;2.45;;;1.60;;
37051;SDS011;22964;52.272;13.356;2022-08-11T10:47:20;2.60;;;1.58;;
37051;SDS011;22964;52.272;13.356;2022-08-11T10:50:03;1.83;;;1.30;;
37051;SDS011;22964;52.272;13.356;2022-08-11T10:52:52;2.38;;;1.60;;
37051;SDS011;22964;52.272;13.356;2022-08-11T10:55:37;2.17;;;1.52;;
37051;SDS011;22964;52.272;13.356;2022-08-11T10:58:25;4.40;;;1.33;;
37051;SDS011;22964;52.272;13.356;2022-08-11T11:01:09;4.35;;;1.60;;
37051;SDS011;22964;52.272;13.356;2022-08-11T11:03:35;3.25;;;1.80;;
37051;SDS011;22964;52.272;13.356;2022-08-11T11:06:20;2.53;;;1.60;;
37051;SDS011;22964;52.272;13.356;2022-08-11T11:11:52;2.05;;;1.55;;
37051;SDS011;22964;52.272;13.356;2022-08-11T11:14:36;2.03;;;1.45;;
37051;SDS011;22964;52.272;13.356;2022-08-11T11:17:27;2.80;;;1.50;;
37051;SDS011;22964;52.272;13.356;2022-08-11T11:20:19;3.10;;;1.60;;
37051;SDS011;22964;52.272;13.356;2022-08-11T11:22:52;3.05;;;1.50;;
37051;SDS011;22964;52.272;13.356;2022-08-11T11:25:43;2.63;;;1.60;;
37051;SDS011;22964;52.272;13.356;2022-08-11T11:36:48;1.83;;;1.45;;
37051;SDS011;22964;52.272;13.356;2022-08-11T11:39:21;4.22;;;1.50;;
37051;SDS011;22964;52.272;13.356;2022-08-11T11:41:50;1.70;;;1.45;;
37051;SDS011;22964;52.272;13.356;2022-08-11T11:44:17;3.17;;;1.70;;
37051;SDS011;22964;52.272;13.356;2022-08-11T11:46:45;3.03;;;1.60;;
37051;SDS011;22964;52.272;13.356;2022-08-11T11:49:11;2.17;;;1.38;;
37051;SDS011;22964;52.272;13.356;2022-08-11T11:51:40;2.30;;;1.70;;
37051;SDS011;22964;52.272;13.356;2022-08-11T11:54:08;3.00;;;1.67;;
37051;SDS011;22964;52.272;13.356;2022-08-11T11:56:35;2.85;;;1.80;;
37051;SDS011;22964;52.272;13.356;2022-08-11T11:59:02;3.67;;;1.65;;
37051;SDS011;22964;52.272;13.356;2022-08-11T12:01:47;8.07;;;1.73;;
37051;SDS011;22964;52.272;13.356;2022-08-11T12:04:13;4.22;;;1.90;;
37051;SDS011;22964;52.272;13.356;2022-08-11T12:06:40;3.53;;;1.70;;
37051;SDS011;22964;52.272;13.356;2022-08-11T12:09:06;2.58;;;1.80;;
37051;SDS011;22964;52.272;13.356;2022-08-11T12:11:39;4.70;;;1.40;;
37051;SDS011;22964;52.272;13.356;2022-08-11T12:14:24;3.35;;;1.52;;
37051;SDS011;22964;52.272;13.356;2022-08-11T12:16:52;3.33;;;2.00;;
37051;SDS011;22964;52.272;13.356;2022-08-11T12:19:24;1.90;;;1.45;;
37051;SDS011;22964;52.272;13.356;2022-08-11T12:21:53;3.45;;;1.48;;
37051;SDS011;22964;52.272;13.356;2022-08-11T12:24:39;2.88;;;1.70;;
37051;SDS011;22964;52.272;13.356;2022-08-11T12:27:25;5.15;;;1.60;;
37051;SDS011;22964;52.272;13.356;2022-08-11T12:29:56;3.65;;;1.70;;
37051;SDS011;22964;52.272;13.356;2022-08-11T12:32:25;3.30;;;1.67;;
37051;SDS011;22964;52.272;13.356;2022-08-11T12:34:54;2.85;;;1.67;;
37051;SDS011;22964;52.272;13.356;2022-08-11T12:37:23;5.20;;;1.50;;
37051;SDS011;22964;52.272;13.356;2022-08-11T12:40:00;2.00;;;1.60;;
37051;SDS011;22964;52.272;13.356;2022-08-11T12:43:09;2.60;;;1.45;;
37051;SDS011;22964;52.272;13.356;2022-08-11T12:46:05;2.83;;;1.45;;
37051;SDS011;22964;52.272;13.356;2022-08-11T12:48:36;4.07;;;1.60;;
37051;SDS011;22964;52.272;13.356;2022-08-11T12:51:29;3.65;;;1.70;;
37051;SDS011;22964;52.272;13.356;2022-08-11T12:54:20;2.38;;;1.70;;
37051;SDS011;22964;52.272;13.356;2022-08-11T12:56:53;2.25;;;1.65;;
37051;SDS011;22964;52.272;13.356;2022-08-11T12:59:41;2.00;;;1.60;;
37051;SDS011;22964;52.272;13.356;2022-08-11T13:02:25;2.17;;;1.50;;
37051;SDS011;22964;52.272;13.356;2022-08-11T13:05:11;4.50;;;1.77;;
37051;SDS011;22964;52.272;13.356;2022-08-11T13:07:39;2.35;;;1.42;;
37051;SDS011;22964;52.272;13.356;2022-08-11T13:10:10;4.10;;;1.80;;
37051;SDS011;22964;52.272;13.356;2022-08-11T13:12:38;4.18;;;1.70;;
37051;SDS011;22964;52.272;13.356;2022-08-11T13:17:48;3.00;;;1.65;;
37051;SDS011;22964;52.272;13.356;2022-08-11T13:20:16;2.63;;;1.40;;
37051;SDS011;22964;52.272;13.356;2022-08-11T13:22:46;2.00;;;1.42;;
37051;SDS011;22964;52.272;13.356;2022-08-11T13:25:14;2.63;;;1.60;;
37051;SDS011;22964;52.272;13.356;2022-08-11T13:27:43;3.17;;;1.73;;
37051;SDS011;22964;52.272;13.356;2022-08-11T13:30:11;5.40;;;1.65;;
37051;SDS011;22964;52.272;13.356;2022-08-11T13:32:57;4.97;;;1.42;;
37051;SDS011;22964;52.272;13.356;2022-08-11T13:35:24;2.97;;;1.40;;
37051;SDS011;22964;52.272;13.356;2022-08-11T13:37:51;3.20;;;1.60;;
37051;SDS011;22964;52.272;13.356;2022-08-11T13:40:19;5.50;;;1.55;;
37051;SDS011;22964;52.272;13.356;2022-08-11T13:42:45;2.10;;;1.40;;
37051;SDS011;22964;52.272;13.356;2022-08-11T13:45:13;2.50;;;1.30;;
37051;SDS011;22964;52.272;13.356;2022-08-11T13:47:39;2.60;;;1.52;;
37051;SDS011;22964;52.272;13.356;2022-08-11T13:50:06;3.55;;;1.60;;
37051;SDS011;22964;52.272;13.356;2022-08-11T13:52:33;2.58;;;1.63;;
37051;SDS011;22964;52.272;13.356;2022-08-11T13:55:00;2.15;;;1.25;;
37051;SDS011;22964;52.272;13.356;2022-08-11T13:57:28;3.85;;;1.60;;
37051;SDS011;22964;52.272;13.356;2022-08-11T13:59:57;1.90;;;1.42;;
37051;SDS011;22964;52.272;13.356;2022-08-11T14:02:37;2.17;;;1.52;;
37051;SDS011;22964;52.272;13.356;2022-08-11T14:05:14;6.80;;;1.30;;
37051;SDS011;22964;52.272;13.356;2022-08-11T14:07:47;1.63;;;1.30;;
37051;SDS011;22964;52.272;13.356;2022-08-11T14:10:16;1.80;;;1.23;;
37051;SDS011;22964;52.272;13.356;2022-08-11T14:12:46;3.15;;;1.40;;
37051;SDS011;22964;52.272;13.356;2022-08-11T14:15:37;2.05;;;1.42;;
37051;SDS011;22964;52.272;13.356;2022-08-11T14:18:25;2.80;;;1.35;;
37051;SDS011;22964;52.272;13.356;2022-08-11T14:20:54;4.18;;;1.40;;
37051;SDS011;22964;52.272;13.356;2022-08-11T14:23:41;1.90;;;1.30;;
37051;SDS011;22964;52.272;13.356;2022-08-11T14:26:14;5.63;;;1.60;;
37051;SDS011;22964;52.272;13.356;2022-08-11T14:31:32;1.77;;;1.30;;
37051;SDS011;22964;52.272;13.356;2022-08-11T14:34:02;1.55;;;1.27;;
37051;SDS011;22964;52.272;13.356;2022-08-11T14:36:34;1.80;;;1.20;;
37051;SDS011;22964;52.272;13.356;2022-08-11T14:39:03;1.90;;;1.20;;
37051;SDS011;22964;52.272;13.356;2022-08-11T14:41:32;4.70;;;1.50;;
37051;SDS011;22964;52.272;13.356;2022-08-11T14:44:17;1.83;;;1.00;;
37051;SDS011;22964;52.272;13.356;2022-08-11T14:47:02;1.77;;;1.20;;
37051;SDS011;22964;52.272;13.356;2022-08-11T14:49:30;1.60;;;1.00;;
37051;SDS011;22964;52.272;13.356;2022-08-11T14:52:00;2.25;;;1.25;;
37051;SDS011;22964;52.272;13.356;2022-08-11T14:54:29;1.95;;;1.20;;
37051;SDS011;22964;52.272;13.356;2022-08-11T14:57:15;2.28;;;1.30;;
37051;SDS011;22964;52.272;13.356;2022-08-11T14:59:43;2.15;;;1.23;;
37051;SDS011;22964;52.272;13.356;2022-08-11T15:02:12;1.52;;;1.10;;
37051;SDS011;22964;52.272;13.356;2022-08-11T15:04:57;2.78;;;1.20;;
37051;SDS011;22964;52.272;13.356;2022-08-11T15:07:26;1.75;;;1.10;;
37051;SDS011;22964;52.272;13.356;2022-08-11T15:09:56;1.45;;;1.15;;
37051;SDS011;22964;52.272;13.356;2022-08-11T15:12:23;1.75;;;1.00;;
37051;SDS011;22964;52.272;13.356;2022-08-11T15:14:49;8.55;;;1.50;;
37051;SDS011;22964;52.272;13.356;2022-08-11T15:17:34;1.50;;;1.05;;
37051;SDS011;22964;52.272;13.356;2022-08-11T15:20:03;4.65;;;1.20;;
37051;SDS011;22964;52.272;13.356;2022-08-11T15:22:52;1.63;;;1.10;;
37051;SDS011;22964;52.272;13.356;2022-08-11T15:25:36;1.35;;;0.90;;
37051;SDS011;22964;52.272;13.356;2022-08-11T15:28:04;2.70;;;1.00;;
37051;SDS011;22964;52.272;13.356;2022-08-11T15:30:51;1.30;;;1.08;;
37051;SDS011;22964;52.272;13.356;2022-08-11T15:33:38;2.15;;;0.98;;
37051;SDS011;22964;52.272;13.356;2022-08-11T15:36:24;1.75;;;1.15;;
37051;SDS011;22964;52.272;13.356;2022-08-11T15:39:18;3.83;;;1.15;;
37051;SDS011;22964;52.272;13.356;2022-08-11T15:42:06;1.83;;;0.95;;
37051;SDS011;22964;52.272;13.356;2022-08-11T15:44:58;1.40;;;1.10;;
37051;SDS011;22964;52.272;13.356;2022-08-11T15:47:47;1.73;;;0.90;;
37051;SDS011;22964;52.272;13.356;2022-08-11T15:50:22;1.50;;;0.82;;
37051;SDS011;22964;52.272;13.356;2022-08-11T15:53:03;2.22;;;1.10;;
37051;SDS011;22964;52.272;13.356;2022-08-11T15:55:34;2.00;;;1.00;;
37051;SDS011;22964;52.272;13.356;2022-08-11T15:58:02;2.50;;;1.30;;
37051;SDS011;22964;52.272;13.356;2022-08-11T16:00:49;3.38;;;1.10;;
37051;SDS011;22964;52.272;13.356;2022-08-11T16:03:46;1.67;;;0.93;;
37051;SDS011;22964;52.272;13.356;2022-08-11T16:10:06;2.50;;;0.80;;
37051;SDS011;22964;52.272;13.356;2022-08-11T16:14:44;2.58;;;1.05;;
37051;SDS011;22964;52.272;13.356;2022-08-11T16:17:34;3.67;;;1.10;;
37051;SDS011;22964;52.272;13.356;2022-08-11T16:20:04;1.35;;;1.00;;
37051;SDS011;22964;52.272;13.356;2022-08-11T16:22:33;1.50;;;1.00;;
37051;SDS011;22964;52.272;13.356;2022-08-11T16:25:07;2.67;;;1.00;;
37051;SDS011;22964;52.272;13.356;2022-08-11T16:27:37;1.48;;;1.05;;
37051;SDS011;22964;52.272;13.356;2022-08-11T16:30:06;2.05;;;1.10;;
37051;SDS011;22964;52.272;13.356;2022-08-11T16:32:34;1.45;;;1.10;;
37051;SDS011;22964;52.272;13.356;2022-08-11T16:35:05;2.20;;;1.20;;
37051;SDS011;22964;52.272;13.356;2022-08-11T16:37:52;1.05;;;0.85;;
37051;SDS011;22964;52.272;13.356;2022-08-11T16:40:38;4.97;;;1.15;;
37051;SDS011;22964;52.272;13.356;2022-08-11T16:43:06;2.90;;;1.00;;
37051;SDS011;22964;52.272;13.356;2022-08-11T16:45:53;1.17;;;0.85;;
37051;SDS011;22964;52.272;13.356;2022-08-11T16:48:38;1.20;;;0.90;;
37051;SDS011;22964;52.272;13.356;2022-08-11T16:51:10;2.47;;;0.90;;
37051;SDS011;22964;52.272;13.356;2022-08-11T16:53:36;1.10;;;0.95;;
37051;SDS011;22964;52.272;13.356;2022-08-11T16:56:04;1.00;;;0.80;;
37051;SDS011;22964;52.272;13.356;2022-08-11T16:58:32;1.27;;;0.90;;
37051;SDS011;22964;52.272;13.356;2022-08-11T17:01:20;2.40;;;0.90;;
37051;SDS011;22964;52.272;13.356;2022-08-11T17:03:53;1.90;;;1.10;;
37051;SDS011;22964;52.272;13.356;2022-08-11T17:06:59;2.20;;;1.00;;
37051;SDS011;22964;52.272;13.356;2022-08-11T17:09:44;2.67;;;0.90;;
37051;SDS011;22964;52.272;13.356;2022-08-11T17:12:32;1.80;;;1.10;;
37051;SDS011;22964;52.272;13.356;2022-08-11T17:15:21;1.20;;;0.80;;
37051;SDS011;22964;52.272;13.356;2022-08-11T17:18:08;2.47;;;0.98;;
37051;SDS011;22964;52.272;13.356;2022-08-11T17:20:37;3.17;;;0.90;;
37051;SDS011;22964;52.272;13.356;2022-08-11T17:23:04;1.23;;;0.82;;
37051;SDS011;22964;52.272;13.356;2022-08-11T17:25:50;1.00;;;0.80;;
37051;SDS011;22964;52.272;13.356;2022-08-11T17:28:17;2.92;;;1.00;;
37051;SDS011;22964;52.272;13.356;2022-08-11T17:30:44;3.92;;;1.08;;
37051;SDS011;22964;52.272;13.356;2022-08-11T17:33:29;1.88;;;1.00;;
37051;SDS011;22964;52.272;13.356;2022-08-11T17:36:15;1.55;;;1.02;;
37051;SDS011;22964;52.272;13.356;2022-08-11T17:38:44;2.35;;;0.90;;
37051;SDS011;22964;52.272;13.356;2022-08-11T17:41:11;4.45;;;0.82;;
37051;SDS011;22964;52.272;13.356;2022-08-11T17:43:57;0.75;;;0.73;;
37051;SDS011;22964;52.272;13.356;2022-08-11T17:46:42;1.38;;;0.95;;
37051;SDS011;22964;52.272;13.356;2022-08-11T17:49:29;3.90;;;0.95;;
37051;SDS011;22964;52.272;13.356;2022-08-11T17:52:01;1.20;;;0.90;;
37051;SDS011;22964;52.272;13.356;2022-08-11T17:54:46;2.20;;;0.90;;
37051;SDS011;22964;52.272;13.356;2022-08-11T17:57:33;1.13;;;0.90;;
37051;SDS011;22964;52.272;13.356;2022-08-11T18:00:21;1.75;;;1.00;;
37051;SDS011;22964;52.272;13.356;2022-08-11T18:02:48;2.08;;;0.90;;
37051;SDS011;22964;52.272;13.356;2022-08-11T18:05:36;1.17;;;0.90;;
37051;SDS011;22964;52.272;13.356;2022-08-11T18:08:07;3.75;;;1.00;;
37051;SDS011;22964;52.272;13.356;2022-08-11T18:10:54;1.60;;;0.90;;
37051;SDS011;22964;52.272;13.356;2022-08-11T18:13:39;1.10;;;0.90;;
37051;SDS011;22964;52.272;13.356;2022-08-11T18:16:24;1.98;;;0.82;;
37051;SDS011;22964;52.272;13.356;2022-08-11T18:19:09;2.50;;;0.90;;
37051;SDS011;22964;52.272;13.356;2022-08-11T18:21:54;3.50;;;1.20;;
37051;SDS011;22964;52.272;13.356;2022-08-11T18:24:52;1.10;;;0.90;;
37051;SDS011;22964;52.272;13.356;2022-08-11T18:27:41;1.60;;;1.00;;
37051;SDS011;22964;52.272;13.356;2022-08-11T18:30:30;2.35;;;0.90;;
37051;SDS011;22964;52.272;13.356;2022-08-11T18:33:18;1.85;;;0.88;;
37051;SDS011;22964;52.272;13.356;2022-08-11T18:36:05;2.17;;;0.90;;
37051;SDS011;22964;52.272;13.356;2022-08-11T18:38:54;1.80;;;1.10;;
37051;SDS011;22964;52.272;13.356;2022-08-11T18:41:40;3.15;;;0.90;;
37051;SDS011;22964;52.272;13.356;2022-08-11T18:44:27;6.00;;;1.35;;
37051;SDS011;22964;52.272;13.356;2022-08-11T18:47:15;5.50;;;1.10;;
37051;SDS011;22964;52.272;13.356;2022-08-11T18:50:02;3.75;;;1.02;;
37051;SDS011;22964;52.272;13.356;2022-08-11T18:52:51;1.10;;;1.00;;
37051;SDS011;22964;52.272;13.356;2022-08-11T18:55:36;1.98;;;1.05;;
37051;SDS011;22964;52.272;13.356;2022-08-11T18:58:26;1.25;;;1.00;;
37051;SDS011;22964;52.272;13.356;2022-08-11T19:01:12;2.22;;;1.10;;
37051;SDS011;22964;52.272;13.356;2022-08-11T19:03:58;1.50;;;1.05;;